Time;durP1;ratioP1;P1;durP2;ratioP2;P2;SDS_P1;SDS_P2;PMS_P1;PMS_P2;Temp;Humidity;BMP_temperature;BMP_pressure;BME280_temperature;BME280_humidity;BME280_pressure;Samples;Min_cycle;Max_cycle;Signal;HPM_P1;HPM_P2
2023/04/06 07:23:56;;;;;;;8.73;3.97;;;8.50;99.90;;;;;;4925396;29;20213;-78
2023/04/06 07:26:23;;;;;;;10.97;3.87;;;8.40;99.90;;;;;;4921807;29;20292;-77
2023/04/06 07:28:50;;;;;;;7.77;4.23;;;8.50;99.90;;;;;;4935472;29;20232;-77
2023/04/06 07:31:17;;;;;;;5.73;3.23;;;8.60;99.90;;;;;;4931359;29;20223;-75
2023/04/06 07:33:44;;;;;;;7.77;4.07;;;8.50;99.90;;;;;;4934203;29;20672;-74
2023/04/06 07:36:12;;;;;;;11.93;4.40;;;8.50;99.90;;;;;;4934091;29;20240;-76
2023/04/06 07:38:38;;;;;;;10.57;3.83;;;8.40;99.90;;;;;;4933621;29;20244;-73
2023/04/06 07:41:07;;;;;;;10.50;4.17;;;8.40;99.90;;;;;;4933542;29;20300;-73
2023/04/06 07:43:34;;;;;;;6.47;3.60;;;8.40;99.90;;;;;;4933856;29;20553;-74
2023/04/06 07:46:01;;;;;;;6.00;3.37;;;8.40;99.90;;;;;;4933713;29;20540;-73
2023/04/06 07:48:29;;;;;;;7.93;3.40;;;8.60;99.90;;;;;;4933357;29;20738;-73
2023/04/06 07:51:02;;;;;;;7.73;3.20;;;8.60;99.90;;;;;;4934190;29;20235;-75
2023/04/06 07:53:30;;;;;;;7.73;3.40;;;8.70;99.90;;;;;;4937732;29;20212;-74
2023/04/06 07:55:57;;;;;;;8.40;3.87;;;8.80;99.90;;;;;;4937649;29;20335;-73
2023/04/06 07:58:25;;;;;;;7.00;3.37;;;8.90;99.90;;;;;;4937577;29;20228;-75
2023/04/06 08:00:52;;;;;;;8.67;3.63;;;9.00;99.90;;;;;;4939091;29;20232;-76
2023/04/06 08:03:21;;;;;;;7.63;3.10;;;9.00;99.90;;;;;;4939107;29;20264;-77
2023/04/06 08:05:48;;;;;;;5.27;3.17;;;9.00;99.90;;;;;;4939000;29;20209;-75
2023/04/06 08:08:15;;;;;;;8.57;3.13;;;9.10;99.90;;;;;;4938960;29;20260;-75
2023/04/06 08:10:42;;;;;;;7.40;3.20;;;9.10;99.90;;;;;;4938865;29;20205;-74
2023/04/06 08:13:09;;;;;;;6.27;3.20;;;9.10;99.90;;;;;;4938792;29;20303;-74
2023/04/06 08:15:37;;;;;;;7.67;3.17;;;9.00;99.90;;;;;;4938560;29;20323;-75
2023/04/06 08:18:05;;;;;;;6.50;3.00;;;8.90;99.90;;;;;;4938103;29;20264;-74
2023/04/06 08:20:32;;;;;;;6.97;3.13;;;8.90;99.90;;;;;;4938714;29;20276;-75
2023/04/06 08:22:58;;;;;;;7.00;3.30;;;9.00;99.90;;;;;;4938421;29;20263;-74
2023/04/06 08:25:25;;;;;;;6.40;2.93;;;9.00;99.90;;;;;;4938685;29;20299;-75
2023/04/06 08:27:52;;;;;;;6.60;3.23;;;8.90;99.90;;;;;;4938141;29;20209;-74
2023/04/06 08:30:19;;;;;;;7.03;2.97;;;8.80;99.90;;;;;;4938369;29;20272;-76
2023/04/06 08:32:48;;;;;;;6.23;3.07;;;8.80;99.90;;;;;;4938611;29;20572;-78
2023/04/06 08:35:15;;;;;;;7.47;3.33;;;8.80;99.90;;;;;;4935028;29;20236;-80
2023/04/06 08:37:42;;;;;;;5.07;2.93;;;8.90;99.90;;;;;;4936750;29;20323;-75
2023/04/06 08:40:09;;;;;;;6.93;2.90;;;9.00;99.90;;;;;;4936693;29;20247;-72
2023/04/06 08:42:41;;;;;;;7.43;2.73;;;8.90;99.90;;;;;;4937582;29;20216;-77
2023/04/06 08:45:10;;;;;;;6.73;2.83;;;8.90;99.90;;;;;;4938408;29;20216;-75
2023/04/06 08:47:37;;;;;;;6.10;2.77;;;8.90;99.90;;;;;;4938149;29;20265;-76
2023/04/06 08:50:08;;;;;;;7.33;3.53;;;8.90;99.90;;;;;;4937541;29;20576;-75
2023/04/06 08:52:35;;;;;;;8.10;2.93;;;8.90;99.90;;;;;;4937467;29;20216;-80
2023/04/06 08:55:03;;;;;;;5.47;3.10;;;8.90;99.90;;;;;;4937768;29;20248;-77
2023/04/06 08:57:31;;;;;;;7.10;3.67;;;9.00;99.90;;;;;;4937698;29;20236;-74
2023/04/06 09:00:00;;;;;;;10.43;3.40;;;9.00;99.90;;;;;;4937661;29;20253;-72
2023/04/06 09:02:28;;;;;;;5.97;2.77;;;9.10;99.90;;;;;;4937059;29;20252;-74
2023/04/06 09:04:55;;;;;;;5.93;3.27;;;9.10;99.90;;;;;;4937220;29;20215;-75
2023/04/06 09:07:24;;;;;;;7.53;3.00;;;9.10;99.90;;;;;;4937024;29;20267;-73
2023/04/06 09:09:51;;;;;;;8.17;3.70;;;9.10;99.90;;;;;;4936825;29;20225;-76
2023/04/06 09:12:26;;;;;;;6.00;3.33;;;9.30;99.90;;;;;;4936148;29;20232;-74
2023/04/06 09:14:53;;;;;;;6.43;3.13;;;9.30;99.90;;;;;;4936066;29;20216;-72
2023/04/06 09:17:24;;;;;;;7.90;3.13;;;9.50;99.90;;;;;;4936655;29;20319;-74
2023/04/06 09:19:51;;;;;;;7.30;3.37;;;9.50;99.90;;;;;;4936839;29;20264;-72
2023/04/06 09:22:19;;;;;;;7.80;3.77;;;9.70;99.90;;;;;;4933614;29;20697;-77
2023/04/06 09:24:48;;;;;;;10.27;3.30;;;9.80;99.90;;;;;;4937080;29;20264;-75
2023/04/06 09:27:16;;;;;;;8.07;3.40;;;9.60;99.90;;;;;;4937230;29;20248;-78
2023/04/06 09:29:44;;;;;;;9.47;3.47;;;9.60;99.90;;;;;;4936550;29;20753;-75
2023/04/06 09:32:16;;;;;;;7.53;3.50;;;9.60;99.90;;;;;;4937192;29;20632;-75
2023/04/06 09:34:48;;;;;;;7.03;3.90;;;9.60;99.90;;;;;;4937496;29;20220;-77
2023/04/06 09:37:15;;;;;;;9.37;3.33;;;9.60;99.90;;;;;;4935602;29;20335;-75
2023/04/06 09:39:42;;;;;;;7.00;3.97;;;9.40;99.90;;;;;;4935307;29;20232;-76
2023/04/06 09:42:13;;;;;;;7.53;4.23;;;9.50;99.90;;;;;;4937076;29;20212;-78
2023/04/06 09:44:39;;;;;;;6.43;3.80;;;9.40;99.90;;;;;;4932445;29;20711;-77
2023/04/06 09:47:08;;;;;;;6.67;3.40;;;9.40;99.90;;;;;;4937044;29;20255;-76
2023/04/06 09:49:36;;;;;;;6.47;3.53;;;9.20;99.90;;;;;;4936779;29;20731;-77
2023/04/06 09:52:04;;;;;;;7.13;3.57;;;9.00;99.90;;;;;;4936737;29;20679;-76
2023/04/06 09:54:32;;;;;;;7.80;3.73;;;8.80;99.90;;;;;;4936720;29;20244;-77
2023/04/06 09:57:07;;;;;;;8.40;3.77;;;8.90;99.90;;;;;;4936754;29;20243;-77
2023/04/06 09:59:43;;;;;;;6.43;3.47;;;8.90;99.90;;;;;;4936572;29;20232;-77
2023/04/06 10:02:22;;;;;;;9.50;3.73;;;9.10;99.90;;;;;;4936864;29;20250;-77
2023/04/06 10:04:56;;;;;;;7.30;3.43;;;9.10;99.90;;;;;;4924727;29;20718;-76
2023/04/06 10:07:23;;;;;;;7.27;3.80;;;9.10;99.90;;;;;;4937029;29;20244;-77
2023/04/06 10:09:51;;;;;;;7.40;3.67;;;9.30;99.90;;;;;;4936782;29;20271;-77
2023/04/06 10:12:19;;;;;;;6.93;3.60;;;9.30;99.90;;;;;;4936918;29;20549;-77
2023/04/06 10:14:47;;;;;;;7.70;3.47;;;9.20;99.90;;;;;;4935529;29;20613;-77
2023/04/06 10:17:14;;;;;;;6.10;3.33;;;9.10;99.90;;;;;;4936692;29;20323;-76
2023/04/06 10:19:50;;;;;;;9.20;3.33;;;9.00;99.90;;;;;;4936695;29;20260;-77
2023/04/06 10:22:25;;;;;;;7.93;3.03;;;9.20;99.90;;;;;;4936227;29;20557;-76
2023/04/06 10:24:52;;;;;;;7.77;2.97;;;9.20;99.90;;;;;;4936404;29;20263;-77
2023/04/06 10:27:28;;;;;;;6.00;3.20;;;9.20;99.90;;;;;;4936619;29;20272;-77
2023/04/06 10:30:03;;;;;;;7.80;3.13;;;9.30;99.90;;;;;;4936589;29;20228;-77
2023/04/06 10:32:35;;;;;;;6.07;3.00;;;9.20;99.90;;;;;;4936220;29;20223;-77
2023/04/06 10:35:09;;;;;;;7.23;3.27;;;9.20;99.90;;;;;;4936149;29;20304;-77
2023/04/06 10:37:53;;;;;;;5.30;3.10;;;9.20;99.90;;;;;;4935334;29;20323;-77
2023/04/06 10:40:22;;;;;;;5.23;2.90;;;9.20;99.90;;;;;;4936151;29;20268;-77
2023/04/06 10:42:49;;;;;;;5.13;2.60;;;9.20;99.90;;;;;;4935979;29;20244;-77
2023/04/06 10:45:23;;;;;;;7.50;4.10;;;9.20;99.90;;;;;;4930829;29;20241;-76
2023/04/06 10:47:50;;;;;;;5.93;3.20;;;9.20;99.90;;;;;;4935739;29;20320;-77
2023/04/06 10:50:17;;;;;;;7.03;3.73;;;9.30;99.90;;;;;;4935956;29;20259;-77
2023/04/06 10:52:46;;;;;;;7.93;4.03;;;9.50;99.90;;;;;;4935612;29;20220;-77
2023/04/06 10:55:15;;;;;;;6.83;3.60;;;9.70;99.90;;;;;;4935620;29;20209;-77
2023/04/06 10:57:42;;;;;;;6.07;3.63;;;9.70;99.90;;;;;;4935531;29;20235;-75
2023/04/06 11:00:12;;;;;;;7.37;3.37;;;9.60;99.90;;;;;;4935086;29;20663;-75
2023/04/06 11:02:41;;;;;;;7.80;3.80;;;9.50;99.90;;;;;;4935335;29;20220;-75
2023/04/06 11:05:08;;;;;;;7.13;3.80;;;9.40;99.90;;;;;;4935635;29;20256;-75
2023/04/06 11:07:35;;;;;;;6.67;4.03;;;9.50;99.90;;;;;;4934966;29;20240;-77
2023/04/06 11:10:02;;;;;;;8.67;4.17;;;9.40;99.90;;;;;;4935030;29;20236;-77
2023/04/06 11:12:30;;;;;;;5.63;3.07;;;9.40;99.90;;;;;;4935139;29;20308;-75
2023/04/06 11:15:03;;;;;;;9.30;3.60;;;9.40;99.90;;;;;;4935320;29;20691;-74
2023/04/06 11:17:31;;;;;;;7.60;4.07;;;9.50;99.90;;;;;;4935125;29;20232;-75
2023/04/06 11:20:00;;;;;;;6.23;3.53;;;9.70;99.90;;;;;;4935022;29;20264;-75
2023/04/06 11:22:27;;;;;;;8.50;3.73;;;9.60;99.90;;;;;;4934942;29;20307;-75
2023/04/06 11:25:05;;;;;;;6.13;3.23;;;9.60;99.90;;;;;;4935128;29;20248;-75
2023/04/06 11:27:32;;;;;;;8.80;3.53;;;9.60;99.90;;;;;;4934687;29;20248;-75
2023/04/06 11:30:00;;;;;;;6.70;2.83;;;9.60;99.90;;;;;;4935265;29;20270;-75
2023/04/06 11:32:27;;;;;;;5.70;3.40;;;9.60;99.90;;;;;;4934997;29;20257;-77
2023/04/06 11:34:53;;;;;;;6.70;3.43;;;9.80;99.90;;;;;;4935026;29;20240;-76
2023/04/06 11:37:22;;;;;;;8.27;3.40;;;10.10;99.90;;;;;;4934974;29;20268;-77
2023/04/06 11:39:50;;;;;;;7.47;3.47;;;10.00;99.90;;;;;;4935397;29;20268;-77
2023/04/06 11:42:24;;;;;;;4.67;2.67;;;10.00;99.90;;;;;;4935391;29;20604;-76
2023/04/06 11:44:52;;;;;;;6.50;3.30;;;10.00;99.90;;;;;;4916112;29;20288;-77
2023/04/06 11:47:21;;;;;;;5.77;3.17;;;10.10;99.90;;;;;;4916627;29;20249;-76
2023/04/06 11:49:50;;;;;;;9.33;3.23;;;10.20;99.90;;;;;;4916153;29;20236;-76
2023/04/06 11:52:18;;;;;;;7.77;3.60;;;10.50;99.90;;;;;;4916162;29;20213;-77
2023/04/06 11:54:48;;;;;;;9.60;3.63;;;10.50;99.90;;;;;;4916243;29;20614;-74
2023/04/06 11:57:16;;;;;;;7.07;2.90;;;10.60;99.90;;;;;;4914909;29;20229;-76
2023/04/06 11:59:43;;;;;;;7.90;3.87;;;10.60;99.90;;;;;;4933631;29;20228;-77
2023/04/06 12:02:10;;;;;;;5.97;3.30;;;10.70;99.90;;;;;;4935158;29;20673;-80
2023/04/06 12:04:37;;;;;;;6.43;3.20;;;10.70;99.90;;;;;;4934965;29;20675;-79
2023/04/06 12:07:05;;;;;;;7.23;2.87;;;10.60;99.90;;;;;;4934696;29;20259;-79
2023/04/06 12:09:34;;;;;;;6.57;2.87;;;10.80;99.90;;;;;;4934527;29;20268;-77
2023/04/06 12:12:02;;;;;;;6.20;3.43;;;10.70;99.90;;;;;;4934664;29;20232;-79
2023/04/06 12:14:30;;;;;;;5.80;3.03;;;10.90;99.90;;;;;;4934778;29;20251;-79
2023/04/06 12:16:57;;;;;;;5.47;2.60;;;10.70;99.90;;;;;;4934420;29;20314;-79
2023/04/06 12:19:25;;;;;;;6.60;3.50;;;10.60;99.90;;;;;;4934630;29;20240;-78
2023/04/06 12:21:53;;;;;;;4.73;2.97;;;10.70;99.90;;;;;;4934910;29;21138;-79
2023/04/06 12:24:20;;;;;;;5.80;2.77;;;10.60;99.90;;;;;;4934773;29;20249;-81
2023/04/06 12:26:47;;;;;;;5.23;3.40;;;10.60;99.90;;;;;;4935169;29;20683;-79
2023/04/06 12:29:15;;;;;;;6.07;3.13;;;10.60;99.90;;;;;;4934643;29;20228;-83
2023/04/06 12:31:44;;;;;;;6.37;2.93;;;10.80;99.90;;;;;;4935268;29;20247;-81
2023/04/06 12:34:11;;;;;;;5.40;3.40;;;10.90;99.90;;;;;;4934656;29;20300;-82
2023/04/06 12:36:38;;;;;;;6.10;3.20;;;10.90;99.90;;;;;;4935113;29;20204;-81
2023/04/06 12:39:06;;;;;;;7.37;2.47;;;10.90;99.90;;;;;;4936501;29;20655;-77
2023/04/06 12:41:33;;;;;;;5.43;3.03;;;10.80;99.90;;;;;;4938512;29;20243;-80
2023/04/06 12:44:00;;;;;;;5.63;2.90;;;10.50;99.90;;;;;;4938261;29;20213;-76
2023/04/06 12:46:29;;;;;;;6.17;2.87;;;10.40;99.90;;;;;;4937303;29;20208;-77
2023/04/06 12:48:57;;;;;;;6.93;3.37;;;10.60;99.90;;;;;;4937559;29;20327;-81
2023/04/06 12:51:24;;;;;;;6.50;3.20;;;10.50;99.90;;;;;;4937481;29;20781;-75
2023/04/06 12:53:51;;;;;;;5.07;3.00;;;10.40;99.90;;;;;;4937542;29;20257;-75
2023/04/06 12:56:20;;;;;;;6.67;3.07;;;10.40;99.90;;;;;;4936964;29;20224;-73
2023/04/06 12:58:48;;;;;;;8.57;3.30;;;10.30;99.90;;;;;;4937850;29;20244;-74
2023/04/06 13:01:15;;;;;;;7.30;3.43;;;10.10;99.90;;;;;;4938006;29;20295;-75
2023/04/06 13:03:44;;;;;;;6.30;3.23;;;10.00;99.90;;;;;;4937835;29;20209;-80
2023/04/06 13:06:12;;;;;;;4.93;3.20;;;9.90;99.90;;;;;;4937529;29;20213;-76
2023/04/06 13:08:40;;;;;;;5.57;3.13;;;9.90;99.90;;;;;;4937350;29;20235;-75
2023/04/06 13:11:08;;;;;;;6.57;3.67;;;9.90;99.90;;;;;;4933382;29;20616;-75
2023/04/06 13:13:36;;;;;;;4.67;2.77;;;9.90;99.90;;;;;;4936592;29;20264;-77
2023/04/06 13:16:04;;;;;;;5.27;3.00;;;9.80;99.90;;;;;;4935978;29;20247;-78
2023/04/06 13:18:32;;;;;;;7.63;3.83;;;9.70;99.90;;;;;;4936387;29;20241;-77
2023/04/06 13:21:00;;;;;;;7.43;3.50;;;9.60;99.90;;;;;;4935988;29;20675;-75
2023/04/06 13:23:28;;;;;;;7.40;3.60;;;9.70;99.90;;;;;;4935633;29;20616;-78
2023/04/06 13:26:01;;;;;;;6.43;3.47;;;9.60;99.90;;;;;;4935926;29;20212;-78
2023/04/06 13:28:28;;;;;;;8.50;3.47;;;9.60;99.90;;;;;;4935602;29;20241;-76
2023/04/06 13:30:56;;;;;;;8.90;4.30;;;9.40;99.90;;;;;;4936166;29;20271;-77
2023/04/06 13:33:23;;;;;;;7.83;3.83;;;9.40;99.90;;;;;;4935584;29;20565;-74
2023/04/06 13:35:51;;;;;;;7.10;3.70;;;9.50;99.90;;;;;;4935782;29;20245;-74
2023/04/06 13:38:19;;;;;;;7.47;4.27;;;9.50;99.90;;;;;;4934665;29;20340;-76
2023/04/06 13:40:46;;;;;;;7.57;4.17;;;9.50;99.90;;;;;;4935007;29;20287;-76
2023/04/06 13:43:13;;;;;;;5.83;3.73;;;9.60;99.90;;;;;;4935072;29;20263;-77
2023/04/06 13:45:40;;;;;;;6.83;3.87;;;9.60;99.90;;;;;;4934716;29;20244;-73
2023/04/06 13:48:07;;;;;;;7.73;3.80;;;9.80;99.90;;;;;;4935136;29;20236;-77
2023/04/06 13:50:34;;;;;;;5.97;3.60;;;9.70;99.90;;;;;;4934078;29;20213;-76
2023/04/06 13:53:01;;;;;;;6.97;3.77;;;9.70;99.90;;;;;;4935454;29;20212;-75
2023/04/06 13:55:31;;;;;;;7.97;3.87;;;9.70;99.90;;;;;;4935681;29;20211;-75
2023/04/06 13:57:57;;;;;;;7.67;4.13;;;9.60;99.90;;;;;;4934882;29;20327;-75
2023/04/06 14:00:25;;;;;;;8.43;4.30;;;9.70;99.90;;;;;;4935505;29;20221;-77
2023/04/06 14:02:54;;;;;;;7.67;3.63;;;9.70;99.90;;;;;;4934909;29;20219;-76
2023/04/06 14:05:20;;;;;;;6.47;3.87;;;9.70;99.90;;;;;;4935071;29;20216;-73
2023/04/06 14:07:47;;;;;;;7.73;3.97;;;9.60;99.90;;;;;;4935144;29;20271;-76
2023/04/06 14:10:14;;;;;;;8.00;3.73;;;9.60;99.90;;;;;;4935267;29;20217;-77
2023/04/06 14:12:43;;;;;;;7.23;4.20;;;9.60;99.90;;;;;;4935155;29;20204;-78
2023/04/06 14:15:12;;;;;;;7.10;3.90;;;9.70;99.90;;;;;;4935276;29;20607;-77
2023/04/06 14:17:39;;;;;;;7.53;4.30;;;9.70;99.90;;;;;;4934908;29;20233;-75
2023/04/06 14:20:07;;;;;;;7.37;4.53;;;9.60;99.90;;;;;;4936496;29;20211;-76
2023/04/06 14:22:35;;;;;;;6.70;4.40;;;9.70;99.90;;;;;;4936503;29;20308;-78
2023/04/06 14:25:02;;;;;;;6.10;4.20;;;9.70;99.90;;;;;;4936340;29;20291;-75
2023/04/06 14:27:28;;;;;;;6.93;3.80;;;9.80;99.90;;;;;;4935930;29;20272;-77
2023/04/06 14:29:56;;;;;;;6.17;3.67;;;9.80;99.90;;;;;;4936137;29;20231;-77
2023/04/06 14:32:24;;;;;;;6.30;3.60;;;9.90;99.90;;;;;;4935950;29;20308;-77
2023/04/06 14:34:51;;;;;;;7.13;3.90;;;10.00;99.90;;;;;;4936009;29;20861;-75
2023/04/06 14:37:18;;;;;;;6.60;3.57;;;10.10;99.90;;;;;;4936022;29;20215;-78
2023/04/06 14:39:45;;;;;;;8.70;3.90;;;10.00;99.90;;;;;;4935960;29;20652;-78
2023/04/06 14:42:12;;;;;;;6.70;4.20;;;10.10;99.90;;;;;;4935755;29;20205;-76
2023/04/06 14:44:42;;;;;;;7.10;3.53;;;10.00;99.90;;;;;;4930780;29;20209;-76
2023/04/06 14:47:10;;;;;;;10.30;4.23;;;10.10;99.90;;;;;;4935809;29;20668;-78
2023/04/06 14:49:38;;;;;;;7.43;3.93;;;10.20;99.90;;;;;;4935848;29;20221;-78
2023/04/06 14:52:05;;;;;;;7.00;3.77;;;10.10;99.90;;;;;;4935861;29;20568;-76
2023/04/06 14:54:32;;;;;;;10.03;3.50;;;10.10;99.90;;;;;;4935524;29;20212;-75
2023/04/06 14:57:00;;;;;;;6.43;3.90;;;10.10;99.90;;;;;;4935574;29;20212;-78
2023/04/06 14:59:27;;;;;;;7.77;4.30;;;10.20;99.90;;;;;;4935151;29;20244;-76
2023/04/06 15:01:54;;;;;;;7.23;4.13;;;10.20;99.90;;;;;;4934790;29;20201;-78
2023/04/06 15:04:22;;;;;;;7.47;3.90;;;10.20;99.90;;;;;;4935582;29;20208;-77
2023/04/06 15:06:49;;;;;;;8.20;4.13;;;10.20;99.90;;;;;;4935850;29;20691;-78
2023/04/06 15:09:16;;;;;;;8.70;4.03;;;10.20;99.90;;;;;;4934999;29;20709;-78
2023/04/06 15:11:42;;;;;;;11.20;5.23;;;10.20;99.90;;;;;;4935493;29;20205;-76
2023/04/06 15:14:09;;;;;;;8.63;4.63;;;10.30;99.90;;;;;;4935346;29;20545;-75
2023/04/06 15:16:36;;;;;;;7.00;4.80;;;10.40;99.90;;;;;;4935369;29;20216;-78
2023/04/06 15:19:03;;;;;;;7.50;4.40;;;10.30;99.90;;;;;;4934734;29;20732;-76
2023/04/06 15:21:32;;;;;;;8.57;4.10;;;10.60;99.90;;;;;;4935323;29;20296;-76
2023/04/06 15:23:58;;;;;;;8.30;4.50;;;10.70;99.90;;;;;;4935302;29;20216;-75
2023/04/06 15:26:26;;;;;;;8.30;4.17;;;10.80;99.90;;;;;;4935229;29;20244;-78
2023/04/06 15:28:53;;;;;;;6.87;3.90;;;10.90;99.90;;;;;;4935112;29;20256;-78
2023/04/06 15:31:21;;;;;;;8.67;4.57;;;10.80;99.90;;;;;;4935500;29;20212;-77
2023/04/06 15:33:47;;;;;;;9.80;4.00;;;10.70;99.90;;;;;;4934824;29;20209;-76
2023/04/06 15:36:24;;;;;;;6.73;4.40;;;10.70;99.90;;;;;;4935214;29;20220;-76
2023/04/06 15:38:52;;;;;;;7.67;4.30;;;10.80;99.90;;;;;;4934976;29;20228;-77
2023/04/06 15:41:19;;;;;;;7.50;4.70;;;10.80;99.90;;;;;;4935281;29;20715;-76
2023/04/06 15:43:46;;;;;;;6.80;3.97;;;10.90;99.90;;;;;;4931568;29;20977;-78
2023/04/06 15:46:13;;;;;;;8.30;4.33;;;10.90;99.90;;;;;;4933897;29;20209;-76
2023/04/06 15:48:41;;;;;;;7.80;4.13;;;10.90;99.90;;;;;;4934631;29;20235;-75
2023/04/06 15:51:08;;;;;;;8.83;4.33;;;10.90;99.90;;;;;;4934843;29;20205;-75
2023/04/06 15:53:35;;;;;;;8.43;4.40;;;10.80;99.90;;;;;;4934526;29;20224;-75
2023/04/06 15:56:05;;;;;;;7.80;4.50;;;10.80;99.90;;;;;;4935282;29;20559;-77
2023/04/06 15:58:33;;;;;;;7.90;4.40;;;10.80;99.90;;;;;;4934796;29;20244;-79
2023/04/06 16:01:00;;;;;;;11.53;5.40;;;10.70;99.90;;;;;;4935175;29;20215;-78
2023/04/06 16:03:27;;;;;;;6.67;4.10;;;10.80;99.90;;;;;;4934617;29;20208;-76
2023/04/06 16:05:55;;;;;;;8.13;4.77;;;10.80;99.90;;;;;;4934798;29;20226;-74
2023/04/06 16:08:21;;;;;;;7.07;4.17;;;10.70;99.90;;;;;;4934652;29;20232;-73
2023/04/06 16:10:48;;;;;;;10.37;4.93;;;10.70;99.90;;;;;;4935071;29;20305;-77
2023/04/06 16:13:17;;;;;;;13.47;7.30;;;10.70;99.90;;;;;;4937554;29;20213;-76
2023/04/06 16:15:43;;;;;;;8.00;4.90;;;10.80;99.90;;;;;;4919496;29;20216;-76
2023/04/06 16:18:10;;;;;;;8.73;4.90;;;10.80;99.90;;;;;;4919123;29;20264;-77
2023/04/06 16:20:37;;;;;;;10.57;5.50;;;10.90;99.90;;;;;;4919284;29;20236;-76
2023/04/06 16:23:04;;;;;;;11.73;5.90;;;11.00;99.90;;;;;;4919258;29;20213;-77
2023/04/06 16:25:31;;;;;;;11.20;5.30;;;11.10;99.90;;;;;;4936644;29;20217;-77
2023/04/06 16:27:58;;;;;;;9.53;4.97;;;11.20;99.90;;;;;;4938568;29;20219;-76
2023/04/06 16:30:29;;;;;;;10.43;5.00;;;11.30;99.90;;;;;;4938211;29;20261;-76
2023/04/06 16:32:56;;;;;;;9.07;5.00;;;11.40;99.90;;;;;;4938259;29;20216;-76
2023/04/06 16:35:24;;;;;;;10.13;5.40;;;11.40;99.90;;;;;;4938080;29;20208;-77
2023/04/06 16:37:51;;;;;;;7.83;5.03;;;11.50;99.90;;;;;;4938341;29;20208;-76
2023/04/06 16:40:18;;;;;;;9.93;4.90;;;11.60;99.90;;;;;;4938294;29;20205;-76
2023/04/06 16:42:47;;;;;;;14.00;5.73;;;11.60;99.90;;;;;;4937986;29;20232;-79
2023/04/06 16:45:14;;;;;;;10.40;5.47;;;11.60;99.90;;;;;;4937594;29;20315;-76
2023/04/06 16:47:42;;;;;;;10.03;6.03;;;11.50;99.90;;;;;;4937521;29;20209;-76
2023/04/06 16:50:10;;;;;;;8.63;5.23;;;11.50;99.90;;;;;;4938196;29;20223;-78
2023/04/06 16:52:37;;;;;;;8.83;5.23;;;11.50;99.90;;;;;;4937339;29;20568;-74
2023/04/06 16:55:05;;;;;;;9.00;4.83;;;11.40;99.90;;;;;;4933820;29;20205;-78
2023/04/06 16:57:32;;;;;;;9.13;4.40;;;11.40;99.90;;;;;;4937150;29;20393;-76
2023/04/06 17:00:00;;;;;;;9.10;4.73;;;11.40;99.90;;;;;;4931832;29;20628;-75
2023/04/06 17:02:27;;;;;;;7.20;4.07;;;11.30;99.90;;;;;;4930266;29;20656;-73
2023/04/06 17:04:55;;;;;;;12.53;5.30;;;11.20;99.90;;;;;;4923538;29;20653;-74
2023/04/06 17:07:25;;;;;;;11.07;4.90;;;11.10;99.90;;;;;;4924096;29;20208;-75
2023/04/06 17:09:52;;;;;;;9.53;3.50;;;11.10;99.90;;;;;;4930499;29;20247;-74
2023/04/06 17:12:18;;;;;;;7.07;3.40;;;11.00;99.90;;;;;;4925475;29;20216;-75
2023/04/06 17:14:45;;;;;;;8.97;3.93;;;11.10;99.90;;;;;;4927133;29;20576;-78
2023/04/06 17:17:12;;;;;;;10.77;3.20;;;11.10;99.90;;;;;;4928624;29;20219;-75
2023/04/06 17:19:39;;;;;;;10.50;2.67;;;11.20;99.90;;;;;;4924910;29;20241;-74
2023/04/06 17:22:07;;;;;;;11.07;3.90;;;11.10;99.90;;;;;;4924356;29;20672;-75
2023/04/06 17:24:34;;;;;;;8.87;2.90;;;11.20;99.90;;;;;;4931329;29;20208;-74
2023/04/06 17:27:01;;;;;;;5.60;2.60;;;11.10;99.90;;;;;;4932264;29;20220;-74
2023/04/06 17:29:28;;;;;;;7.37;2.50;;;11.10;99.90;;;;;;4934616;29;20225;-73
2023/04/06 17:31:55;;;;;;;9.07;3.00;;;11.10;99.90;;;;;;4937025;29;20219;-76
2023/04/06 17:34:21;;;;;;;5.40;2.30;;;11.00;99.90;;;;;;4936519;29;20616;-75
2023/04/06 17:36:48;;;;;;;7.40;2.30;;;11.00;99.90;;;;;;4936498;29;20215;-75
2023/04/06 17:39:17;;;;;;;8.03;2.63;;;11.00;99.90;;;;;;4936793;29;20324;-75
2023/04/06 17:41:44;;;;;;;7.57;2.33;;;11.10;99.90;;;;;;4936572;29;20209;-75
2023/04/06 17:44:11;;;;;;;5.40;2.30;;;11.10;99.90;;;;;;4935435;29;20209;-76
2023/04/06 17:46:37;;;;;;;6.23;2.30;;;11.10;99.90;;;;;;4935762;29;20212;-74
2023/04/06 17:49:07;;;;;;;4.57;2.40;;;11.20;99.90;;;;;;4936370;29;20232;-74
2023/04/06 17:51:33;;;;;;;4.40;2.03;;;11.30;99.90;;;;;;4935858;29;20217;-74
2023/04/06 17:54:00;;;;;;;8.37;1.87;;;11.20;99.90;;;;;;4936211;29;20205;-75
2023/04/06 17:56:29;;;;;;;5.40;1.80;;;11.20;99.90;;;;;;4935491;29;20219;-75
2023/04/06 17:58:56;;;;;;;6.80;1.90;;;11.20;99.90;;;;;;4936655;29;20240;-74
2023/04/06 18:01:23;;;;;;;5.80;1.83;;;11.30;99.90;;;;;;4936441;29;20335;-73
2023/04/06 18:03:50;;;;;;;9.93;2.03;;;11.20;99.90;;;;;;4935561;29;20682;-73
2023/04/06 18:06:17;;;;;;;9.00;2.43;;;11.20;99.90;;;;;;4935284;29;20201;-73
2023/04/06 18:08:44;;;;;;;8.57;4.03;;;11.20;99.90;;;;;;4935127;29;20284;-74
2023/04/06 18:11:15;;;;;;;6.83;1.70;;;11.10;99.90;;;;;;4934537;29;20239;-75
2023/04/06 18:13:44;;;;;;;9.00;2.47;;;11.00;99.90;;;;;;4936346;29;20211;-73
2023/04/06 18:16:11;;;;;;;12.27;2.87;;;10.90;99.90;;;;;;4935729;29;20546;-73
2023/04/06 18:18:38;;;;;;;5.93;2.30;;;10.90;99.90;;;;;;4934654;29;20318;-74
2023/04/06 18:21:05;;;;;;;8.73;2.20;;;10.80;99.90;;;;;;4936086;29;20209;-73
2023/04/06 18:23:33;;;;;;;5.53;2.00;;;10.80;99.90;;;;;;4935110;29;20300;-73
2023/04/06 18:26:00;;;;;;;7.83;2.37;;;10.70;99.90;;;;;;4936343;29;20299;-73
2023/04/06 18:28:27;;;;;;;10.07;2.73;;;10.70;99.90;;;;;;4935979;29;20312;-73
2023/04/06 18:30:55;;;;;;;8.73;2.20;;;10.70;99.90;;;;;;4935975;29;20264;-74
2023/04/06 18:33:22;;;;;;;8.50;2.30;;;10.70;99.90;;;;;;4927726;29;20216;-73
2023/04/06 18:35:49;;;;;;;10.73;2.40;;;10.70;99.90;;;;;;4922940;29;20205;-73
2023/04/06 18:38:16;;;;;;;6.70;2.33;;;10.60;99.90;;;;;;4921538;29;20575;-74
2023/04/06 18:40:42;;;;;;;7.47;2.43;;;10.60;99.90;;;;;;4920752;29;20236;-74
2023/04/06 18:43:10;;;;;;;6.23;2.40;;;10.70;99.90;;;;;;4930671;29;20213;-73
2023/04/06 18:45:38;;;;;;;9.80;3.67;;;10.70;99.90;;;;;;4933982;29;20208;-74
2023/04/06 18:48:07;;;;;;;10.27;3.87;;;10.70;99.90;;;;;;4929306;29;20282;-75
2023/04/06 18:50:33;;;;;;;6.67;2.57;;;10.70;99.90;;;;;;4935095;29;20204;-75
2023/04/06 18:53:00;;;;;;;7.27;2.77;;;10.70;99.90;;;;;;4929647;29;20210;-78
2023/04/06 18:55:27;;;;;;;11.27;3.30;;;10.80;99.90;;;;;;4929855;29;20296;-74
2023/04/06 18:57:54;;;;;;;10.90;3.17;;;10.80;99.90;;;;;;4929230;29;20227;-75
2023/04/06 19:00:21;;;;;;;9.03;2.33;;;10.60;99.90;;;;;;4935410;29;20263;-74
2023/04/06 19:02:48;;;;;;;9.97;2.43;;;10.60;99.90;;;;;;4929402;29;20205;-77
2023/04/06 19:05:16;;;;;;;8.57;2.53;;;10.70;99.90;;;;;;4928993;29;20213;-74
2023/04/06 19:07:46;;;;;;;10.93;2.77;;;10.60;99.90;;;;;;4929496;29;20215;-75
2023/04/06 19:10:13;;;;;;;6.47;2.77;;;10.70;99.90;;;;;;4924378;29;20216;-74
2023/04/06 19:12:40;;;;;;;6.47;3.13;;;10.70;99.90;;;;;;4924510;29;20251;-75
2023/04/06 19:15:08;;;;;;;7.20;2.47;;;10.70;99.90;;;;;;4933905;29;20213;-75
2023/04/06 19:17:36;;;;;;;8.40;3.40;;;10.80;99.90;;;;;;4921692;29;20213;-74
2023/04/06 19:20:03;;;;;;;9.13;2.00;;;10.80;99.90;;;;;;4933756;29;20236;-74
2023/04/06 19:22:34;;;;;;;5.83;2.30;;;10.90;99.90;;;;;;4919586;29;20234;-74
2023/04/06 19:25:01;;;;;;;3.97;1.80;;;10.90;99.90;;;;;;4931664;29;20209;-74
2023/04/06 19:27:27;;;;;;;4.80;2.73;;;10.90;99.90;;;;;;4926608;29;20201;-74
2023/04/06 19:29:54;;;;;;;4.03;2.03;;;10.90;99.90;;;;;;4929884;29;20230;-74
2023/04/06 19:32:21;;;;;;;5.60;3.00;;;10.90;99.90;;;;;;4927014;29;20300;-75
2023/04/06 19:34:48;;;;;;;4.90;2.70;;;10.80;99.90;;;;;;4929241;29;20688;-74
2023/04/06 19:37:15;;;;;;;3.70;1.80;;;10.80;99.90;;;;;;4926863;29;20660;-74
2023/04/06 19:39:43;;;;;;;6.80;2.83;;;10.90;99.90;;;;;;4928148;29;20236;-81
2023/04/06 19:42:13;;;;;;;6.80;3.33;;;10.90;99.90;;;;;;4925271;29;20205;-73
2023/04/06 19:44:39;;;;;;;7.53;2.43;;;10.90;99.90;;;;;;4924126;29;20214;-75
2023/04/06 19:47:06;;;;;;;5.43;2.67;;;10.80;99.90;;;;;;4922573;29;20219;-77
2023/04/06 19:49:33;;;;;;;8.17;2.90;;;10.80;99.90;;;;;;4930138;29;20237;-74
2023/04/06 19:52:00;;;;;;;5.60;2.30;;;10.70;99.90;;;;;;4936971;29;20686;-74
2023/04/06 19:54:27;;;;;;;6.03;2.90;;;10.70;99.90;;;;;;4927168;29;20209;-78
2023/04/06 19:56:55;;;;;;;8.97;3.07;;;10.70;99.90;;;;;;4937603;29;20297;-78
2023/04/06 19:59:23;;;;;;;4.97;2.57;;;10.70;99.90;;;;;;4923332;29;20341;-78
2023/04/06 20:01:50;;;;;;;7.03;2.43;;;10.60;99.90;;;;;;4936675;29;20201;-77
2023/04/06 20:04:16;;;;;;;8.33;3.17;;;10.60;99.90;;;;;;4930517;29;20213;-77
2023/04/06 20:06:43;;;;;;;6.97;2.77;;;10.70;99.90;;;;;;4936577;29;20209;-75
2023/04/06 20:09:10;;;;;;;5.77;2.33;;;10.70;99.90;;;;;;4933865;29;20704;-74
2023/04/06 20:11:38;;;;;;;7.37;2.67;;;10.80;99.90;;;;;;4935321;29;20208;-77
2023/04/06 20:14:06;;;;;;;4.60;2.53;;;10.80;99.90;;;;;;4927354;29;20220;-76
2023/04/06 20:16:33;;;;;;;4.83;2.37;;;10.70;99.90;;;;;;4923671;29;20205;-76